Schedule Details

Flight Number: CPX361
Departure: Seattle-Tacoma International Airport (KSEA) at N/A
Arrival: Miami International Airport (KMIA) at N/A
Route: SEA NORMY J90 MWH DLN DDY BFF SGF MEM MGM SZW PLYER JUULI SSCOT5


Current Weather Information
KSEA 180653Z 15003KT 7SM SCT036 BKN043 OVC110 02/01 A3032 RMK AO2 SLP276 T00220011
KMIA 180653Z 14007KT 10SM FEW030 SCT045 SCT065 26/23 A3004 RMK AO2 SLP172 T02560233

Route Map